createdAt,value
2023-02-14T00:00:49.895Z,6.80
2023-02-14T00:03:17.862Z,8.23
2023-02-14T00:05:44.781Z,8.02
2023-02-14T00:08:11.390Z,7.13
2023-02-14T00:10:39.058Z,7.07
2023-02-14T00:13:05.950Z,6.07
2023-02-14T00:15:35.578Z,6.60
2023-02-14T00:18:04.227Z,7.80
2023-02-14T00:20:30.645Z,5.60
2023-02-14T00:22:57.473Z,7.32
2023-02-14T00:25:26.450Z,7.47
2023-02-14T00:27:54.395Z,7.32
2023-02-14T00:30:21.009Z,8.73
2023-02-14T00:32:47.778Z,7.30
2023-02-14T00:35:15.172Z,7.07
2023-02-14T00:37:41.672Z,8.10
2023-02-14T00:40:09.085Z,9.60
2023-02-14T00:42:35.601Z,6.75
2023-02-14T00:45:02.190Z,8.40
2023-02-14T00:47:28.710Z,8.23
2023-02-14T00:49:59.330Z,7.78
2023-02-14T00:54:52.096Z,6.47
2023-02-14T00:57:18.518Z,8.88
2023-02-14T00:59:45.078Z,6.80
2023-02-14T01:02:11.670Z,6.97
2023-02-14T01:04:38.139Z,6.55
2023-02-14T01:07:06.080Z,6.15
2023-02-14T01:09:32.643Z,8.50
2023-02-14T01:12:01.862Z,9.32
2023-02-14T01:14:30.678Z,9.68
2023-02-14T01:16:57.141Z,8.00
2023-02-14T01:19:26.079Z,8.73
2023-02-14T01:21:52.595Z,9.70
2023-02-14T01:24:22.854Z,7.15
2023-02-14T01:26:49.365Z,8.50
2023-02-14T01:29:15.882Z,7.47
2023-02-14T01:31:44.931Z,7.40
2023-02-14T01:34:11.744Z,7.10
2023-02-14T01:36:39.783Z,9.75
2023-02-14T01:39:15.369Z,7.07
2023-02-14T01:41:48.516Z,7.40
2023-02-14T01:44:16.120Z,6.90
2023-02-14T01:46:44.546Z,6.15
2023-02-14T01:49:28.203Z,6.65
2023-02-14T01:52:10.935Z,6.15
2023-02-14T01:54:43.669Z,6.53
2023-02-14T01:57:14.506Z,5.85
2023-02-14T01:59:48.143Z,6.45
2023-02-14T02:02:15.989Z,4.93
2023-02-14T02:04:46.927Z,5.75
2023-02-14T02:07:23.262Z,6.40
2023-02-14T02:09:58.120Z,7.47
2023-02-14T02:12:24.842Z,8.45
2023-02-14T02:14:54.726Z,6.30
2023-02-14T02:17:36.926Z,7.07
2023-02-14T02:20:36.432Z,5.90
2023-02-14T02:23:57.166Z,5.25
2023-02-14T02:26:45.759Z,7.82
2023-02-14T02:29:46.413Z,6.40
2023-02-14T02:32:16.738Z,6.20
2023-02-14T02:35:09.313Z,7.38
2023-02-14T02:38:04.220Z,6.38
2023-02-14T02:41:09.523Z,8.52
2023-02-14T02:43:54.064Z,6.38
2023-02-14T02:46:47.896Z,6.38
2023-02-14T02:49:51.754Z,6.38
2023-02-14T02:52:46.072Z,6.72
2023-02-14T02:55:56.134Z,7.47
2023-02-14T02:58:29.769Z,6.53
2023-02-14T03:00:59.492Z,6.38
2023-02-14T03:03:48.532Z,6.53
2023-02-14T03:06:15.009Z,6.45
2023-02-14T03:08:43.593Z,5.82
2023-02-14T03:11:13.967Z,8.77
2023-02-14T03:13:51.761Z,6.70
2023-02-14T03:16:39.660Z,6.63
2023-02-14T03:19:11.321Z,6.65
2023-02-14T03:21:46.963Z,6.60
2023-02-14T03:24:31.646Z,7.53
2023-02-14T03:27:15.049Z,5.10
2023-02-14T03:30:01.192Z,6.57
2023-02-14T03:32:45.504Z,6.90
2023-02-14T03:35:20.140Z,5.57
2023-02-14T03:37:57.001Z,5.57
2023-02-14T03:40:49.554Z,5.32
2023-02-14T03:43:22.454Z,6.72
2023-02-14T03:45:55.210Z,5.57
2023-02-14T03:48:24.903Z,7.55
2023-02-14T03:50:52.893Z,6.65
2023-02-14T03:53:24.123Z,6.10
2023-02-14T03:56:13.976Z,7.20
2023-02-14T03:58:45.305Z,7.45
2023-02-14T04:01:23.407Z,5.70
2023-02-14T04:03:56.231Z,5.97
2023-02-14T04:06:22.889Z,7.82
2023-02-14T04:08:49.360Z,8.25
2023-02-14T04:11:16.218Z,6.63
2023-02-14T04:13:44.336Z,6.07
2023-02-14T04:16:10.963Z,5.80
2023-02-14T04:18:56.431Z,6.25
2023-02-14T04:21:23.010Z,7.38
2023-02-14T04:23:49.667Z,7.85
2023-02-14T04:26:16.310Z,7.05
2023-02-14T04:28:42.806Z,5.28
2023-02-14T04:31:11.583Z,5.80
2023-02-14T04:33:39.271Z,5.07
2023-02-14T04:36:14.821Z,5.13
2023-02-14T04:38:41.329Z,5.63
2023-02-14T04:41:07.869Z,7.60
2023-02-14T04:43:35.268Z,5.95
2023-02-14T04:46:01.821Z,6.35
2023-02-14T04:48:28.315Z,7.57
2023-02-14T04:50:55.167Z,5.57
2023-02-14T04:53:21.931Z,5.57
2023-02-14T04:55:49.875Z,5.82
2023-02-14T04:58:16.421Z,5.07
2023-02-14T05:00:42.939Z,6.38
2023-02-14T05:03:10.416Z,5.32
2023-02-14T05:05:36.923Z,4.70
2023-02-14T05:08:03.617Z,5.50
2023-02-14T05:10:30.084Z,5.93
2023-02-14T05:12:56.641Z,5.18
2023-02-14T05:15:23.394Z,6.95
2023-02-14T05:17:49.879Z,5.57
2023-02-14T05:20:18.724Z,4.72
2023-02-14T05:22:45.230Z,5.28
2023-02-14T05:25:11.710Z,5.38
2023-02-14T05:27:38.384Z,5.63
2023-02-14T05:30:05.476Z,5.65
2023-02-14T05:32:32.055Z,5.43
2023-02-14T05:35:00.970Z,6.28
2023-02-14T05:37:27.627Z,4.30
2023-02-14T05:39:54.182Z,5.30
2023-02-14T05:42:20.641Z,6.38
2023-02-14T05:44:48.229Z,4.65
2023-02-14T05:47:14.991Z,6.18
2023-02-14T05:49:41.444Z,6.22
2023-02-14T05:52:08.052Z,4.53
2023-02-14T05:54:34.701Z,6.35
2023-02-14T05:57:01.227Z,5.32
2023-02-14T05:59:32.358Z,5.38
2023-02-14T06:01:58.939Z,5.15
2023-02-14T06:04:25.724Z,7.35
2023-02-14T06:06:52.186Z,5.28
2023-02-14T06:09:20.192Z,6.47
2023-02-14T06:11:46.755Z,5.45
2023-02-14T06:14:14.638Z,7.60
2023-02-14T06:16:41.199Z,7.20
2023-02-14T06:19:07.984Z,6.93
2023-02-14T06:21:34.802Z,7.25
2023-02-14T06:24:01.501Z,5.72
2023-02-14T06:26:29.113Z,6.28
2023-02-14T06:28:56.930Z,6.82
2023-02-14T06:31:24.380Z,6.03
2023-02-14T06:33:52.451Z,5.85
2023-02-14T06:36:19.850Z,5.65
2023-02-14T06:38:47.956Z,7.25
2023-02-14T06:41:17.372Z,6.28
2023-02-14T06:43:44.982Z,8.50
2023-02-14T06:46:11.776Z,7.15
2023-02-14T06:48:38.296Z,6.90
2023-02-14T06:51:04.915Z,5.97
2023-02-14T06:53:36.724Z,6.78
2023-02-14T06:56:06.043Z,9.10
2023-02-14T06:58:32.702Z,7.22
2023-02-14T07:01:00.179Z,7.43
2023-02-14T07:03:27.585Z,7.90
2023-02-14T07:05:55.679Z,6.82
2023-02-14T07:08:22.256Z,6.80
2023-02-14T07:10:51.158Z,9.45
2023-02-14T07:13:18.768Z,7.55
2023-02-14T07:15:47.111Z,9.02
2023-02-14T07:18:13.720Z,7.88
2023-02-14T07:20:40.528Z,7.75
2023-02-14T07:23:07.028Z,7.22
2023-02-14T07:25:33.634Z,9.02
2023-02-14T07:28:00.230Z,9.65
2023-02-14T07:30:26.748Z,7.18
2023-02-14T07:32:53.479Z,7.57
2023-02-14T07:35:22.708Z,7.70
2023-02-14T07:37:52.547Z,8.10
2023-02-14T07:40:23.015Z,8.48
2023-02-14T07:42:58.072Z,6.28
2023-02-14T07:45:25.653Z,7.95
2023-02-14T07:47:54.145Z,8.10
2023-02-14T07:50:23.068Z,7.35
2023-02-14T07:52:51.814Z,6.15
2023-02-14T07:55:22.106Z,8.75
2023-02-14T07:57:49.247Z,7.53
2023-02-14T08:00:16.203Z,8.20
2023-02-14T08:02:42.854Z,8.80
2023-02-14T08:05:09.555Z,8.02
2023-02-14T08:07:36.231Z,9.10
2023-02-14T08:10:02.704Z,10.15
2023-02-14T08:12:48.270Z,8.40
2023-02-14T08:15:33.771Z,11.05
2023-02-14T08:18:00.236Z,10.55
2023-02-14T08:20:26.820Z,11.70
2023-02-14T08:22:53.386Z,11.23
2023-02-14T08:25:20.160Z,11.13
2023-02-14T08:27:49.699Z,11.48
2023-02-14T08:30:16.643Z,11.43
2023-02-14T08:32:43.516Z,11.30
2023-02-14T08:35:10.031Z,13.18
2023-02-14T08:37:36.674Z,12.90
2023-02-14T08:40:03.404Z,11.63
2023-02-14T08:42:30.319Z,13.55
2023-02-14T08:45:16.560Z,13.00
2023-02-14T08:47:48.857Z,13.13
2023-02-14T08:50:17.359Z,13.30
2023-02-14T08:52:44.540Z,13.55
2023-02-14T08:58:21.610Z,12.40
2023-02-14T09:00:48.201Z,12.95
2023-02-14T09:03:14.775Z,13.60
2023-02-14T09:05:41.736Z,13.75
2023-02-14T09:08:08.535Z,13.50
2023-02-14T09:10:47.712Z,13.57
2023-02-14T09:13:15.369Z,13.52
2023-02-14T09:15:41.900Z,13.82
2023-02-14T09:18:16.307Z,12.95
2023-02-14T09:20:45.832Z,13.80
2023-02-14T09:23:12.546Z,14.38
2023-02-14T09:25:39.295Z,13.45
2023-02-14T09:28:59.397Z,15.93
2023-02-14T09:31:59.678Z,14.95
2023-02-14T09:34:46.551Z,14.63
2023-02-14T09:37:33.126Z,15.32
2023-02-14T09:40:00.857Z,14.48
2023-02-14T09:42:45.917Z,15.50
2023-02-14T09:45:25.567Z,16.15
2023-02-14T09:48:06.168Z,15.82
2023-02-14T09:50:47.369Z,15.15
2023-02-14T09:53:49.359Z,14.82
2023-02-14T09:56:42.847Z,15.90
2023-02-14T09:59:25.699Z,15.45
2023-02-14T10:01:59.363Z,15.65
2023-02-14T10:04:39.760Z,15.05
2023-02-14T10:07:35.076Z,15.90
2023-02-14T10:10:08.849Z,16.35
2023-02-14T10:12:46.102Z,15.55
2023-02-14T10:15:41.611Z,14.60
2023-02-14T10:18:24.601Z,15.15
2023-02-14T10:21:05.156Z,14.95
2023-02-14T10:23:47.581Z,13.82
2023-02-14T10:30:13.122Z,14.73
2023-02-14T10:32:46.765Z,14.52
2023-02-14T10:35:22.667Z,14.23
2023-02-14T10:38:40.780Z,14.35
2023-02-14T10:41:24.086Z,14.57
2023-02-14T10:44:14.731Z,14.45
2023-02-14T10:47:02.265Z,13.00
2023-02-14T10:50:11.483Z,13.50
2023-02-14T10:53:01.453Z,14.15
2023-02-14T10:55:54.977Z,13.35
2023-02-14T10:58:28.434Z,13.88
2023-02-14T11:01:03.895Z,13.55
2023-02-14T11:03:32.995Z,13.93
2023-02-14T11:06:01.021Z,13.95
2023-02-14T11:08:33.779Z,13.85
2023-02-14T11:11:13.690Z,14.00
2023-02-14T11:13:40.653Z,13.45
2023-02-14T11:16:31.485Z,14.93
2023-02-14T11:20:16.624Z,13.98
2023-02-14T11:23:48.745Z,14.23
2023-02-14T11:37:43.470Z,13.75
2023-02-14T11:44:23.598Z,16.73
2023-02-14T11:46:55.941Z,14.00
2023-02-14T11:49:57.745Z,14.77
2023-02-14T11:52:28.812Z,14.05
2023-02-14T11:54:58.538Z,12.35
2023-02-14T11:57:52.640Z,11.85
2023-02-14T12:00:30.144Z,14.32
2023-02-14T12:03:20.243Z,14.30
2023-02-14T12:06:06.204Z,14.38
2023-02-14T12:09:19.437Z,13.68
2023-02-14T12:19:54.963Z,14.15
2023-02-14T12:22:34.043Z,14.30
2023-02-14T12:26:17.388Z,13.85
2023-02-14T12:28:54.584Z,13.50
2023-02-14T12:56:51.389Z,13.43
2023-02-14T13:02:24.586Z,12.30
2023-02-14T13:17:36.325Z,11.77
2023-02-14T13:42:34.579Z,11.02
2023-02-14T13:57:27.237Z,11.02
2023-02-14T14:04:35.122Z,10.93
2023-02-14T14:07:30.705Z,9.95
2023-02-14T14:10:36.850Z,10.35
2023-02-14T14:13:03.554Z,10.63
2023-02-14T14:15:31.729Z,11.07
2023-02-14T14:18:13.418Z,11.00
2023-02-14T14:20:42.145Z,11.35
2023-02-14T14:23:37.211Z,9.50
2023-02-14T14:28:50.469Z,10.38
2023-02-14T14:31:20.488Z,10.75
2023-02-14T14:36:23.377Z,10.02
2023-02-14T14:38:54.540Z,11.40
2023-02-14T14:44:15.150Z,11.10
2023-02-14T14:46:42.097Z,9.57
2023-02-14T14:49:11.149Z,11.68
2023-02-14T14:51:43.530Z,9.48
2023-02-14T14:54:12.752Z,11.43
2023-02-14T14:56:51.094Z,10.60
2023-02-14T14:59:40.137Z,10.57
2023-02-14T15:02:28.179Z,9.85
2023-02-14T15:04:57.890Z,9.85
2023-02-14T15:07:32.914Z,8.80
2023-02-14T15:10:00.603Z,10.15
2023-02-14T15:12:46.946Z,10.63
2023-02-14T15:15:16.772Z,11.45
2023-02-14T15:17:44.071Z,10.73
2023-02-14T15:20:18.672Z,10.80
2023-02-14T15:22:50.572Z,10.27
2023-02-14T15:25:21.462Z,9.48
2023-02-14T15:27:51.966Z,8.73
2023-02-14T15:59:01.191Z,10.15
2023-02-14T16:08:54.700Z,8.82
2023-02-14T16:12:29.983Z,7.97
2023-02-14T16:15:19.761Z,11.00
2023-02-14T16:17:50.935Z,9.00
2023-02-14T16:20:53.499Z,10.27
2023-02-14T16:23:25.056Z,9.38
2023-02-14T16:25:53.273Z,10.43
2023-02-14T16:28:30.466Z,10.13
2023-02-14T16:31:16.096Z,10.32
2023-02-14T16:33:42.890Z,10.02
2023-02-14T16:36:32.222Z,9.98
2023-02-14T16:39:02.126Z,10.43
2023-02-14T16:41:30.280Z,10.55
2023-02-14T16:47:30.561Z,10.50
2023-02-14T16:56:26.825Z,9.43
2023-02-14T16:58:58.062Z,11.23
2023-02-14T17:01:27.441Z,9.57
2023-02-14T17:03:57.388Z,9.85
2023-02-14T17:09:25.398Z,10.80
2023-02-14T17:11:54.234Z,10.63
2023-02-14T17:14:30.227Z,10.02
2023-02-14T17:16:58.479Z,11.30
2023-02-14T17:19:25.699Z,12.13
2023-02-14T17:21:53.701Z,10.95
2023-02-14T17:24:20.284Z,11.88
2023-02-14T17:27:12.230Z,12.63
2023-02-14T17:29:52.123Z,11.07
2023-02-14T17:32:44.159Z,11.70
2023-02-14T17:35:11.952Z,11.50
2023-02-14T17:37:39.565Z,11.48
2023-02-14T17:40:10.516Z,9.88
2023-02-14T17:42:38.785Z,9.00
2023-02-14T17:45:11.647Z,9.85
2023-02-14T17:47:39.926Z,10.07
2023-02-14T17:50:07.397Z,10.27
2023-02-14T17:52:34.410Z,11.98
2023-02-14T17:55:00.961Z,10.80
2023-02-14T17:57:27.489Z,11.02
2023-02-14T17:59:54.028Z,11.75
2023-02-14T18:02:20.619Z,9.07
2023-02-14T18:04:48.243Z,10.98
2023-02-14T18:07:14.789Z,12.07
2023-02-14T18:09:41.315Z,13.02
2023-02-14T18:12:10.343Z,11.65
2023-02-14T18:14:41.431Z,13.45
2023-02-14T18:17:08.071Z,14.82
2023-02-14T18:19:37.781Z,13.90
2023-02-14T18:22:06.074Z,13.98
2023-02-14T18:24:32.681Z,13.05
2023-02-14T18:26:59.271Z,12.90
2023-02-14T18:29:25.770Z,11.68
2023-02-14T18:31:52.457Z,10.02
2023-02-14T18:34:19.081Z,11.40
2023-02-14T18:36:45.791Z,11.15
2023-02-14T18:39:23.969Z,10.52
2023-02-14T18:41:53.581Z,11.95
2023-02-14T18:44:45.191Z,12.05
2023-02-14T18:47:15.727Z,11.38
2023-02-14T18:49:55.208Z,12.35
2023-02-14T18:52:25.643Z,12.57
2023-02-14T18:57:53.718Z,10.52
2023-02-14T19:00:23.028Z,12.20
2023-02-14T19:03:01.112Z,11.57
2023-02-14T19:05:36.093Z,12.68
2023-02-14T19:08:19.169Z,13.73
2023-02-14T19:10:46.126Z,12.25
2023-02-14T19:13:29.280Z,14.02
2023-02-14T19:15:56.680Z,12.07
2023-02-14T19:18:26.443Z,13.02
2023-02-14T19:20:53.089Z,11.20
2023-02-14T19:23:19.839Z,12.18
2023-02-14T19:25:46.346Z,13.27
2023-02-14T19:28:13.542Z,15.40
2023-02-14T19:30:40.055Z,16.40
2023-02-14T19:33:06.949Z,14.70
2023-02-14T19:35:36.748Z,14.95
2023-02-14T19:38:53.539Z,14.75
2023-02-14T19:46:02.482Z,9.88
2023-02-14T19:49:19.296Z,10.48
2023-02-14T19:51:53.168Z,10.45
2023-02-14T19:54:21.919Z,11.50
2023-02-14T19:57:28.251Z,10.38
2023-02-14T20:06:51.229Z,11.93
2023-02-14T20:09:18.836Z,13.93
2023-02-14T20:12:47.500Z,14.68
2023-02-14T20:15:35.261Z,14.82
2023-02-14T20:18:04.649Z,16.65
2023-02-14T20:21:18.225Z,23.52
2023-02-14T20:59:46.443Z,9.35
2023-02-14T21:06:15.087Z,11.07
2023-02-14T21:08:42.898Z,10.05
2023-02-14T21:12:15.405Z,12.15
2023-02-14T21:15:47.638Z,11.45
2023-02-14T21:18:44.455Z,11.50
2023-02-14T21:21:47.158Z,11.63
2023-02-14T21:25:16.825Z,9.13
2023-02-14T21:28:51.687Z,10.73
2023-02-14T21:31:57.427Z,11.07
2023-02-14T21:34:41.848Z,10.93
2023-02-14T21:37:22.255Z,11.40
2023-02-14T21:39:52.505Z,11.43
2023-02-14T21:42:27.110Z,11.57
2023-02-14T21:45:59.007Z,12.85
2023-02-14T21:52:51.556Z,11.68
2023-02-14T21:56:02.871Z,12.57
2023-02-14T22:01:47.979Z,10.35
2023-02-14T22:04:20.295Z,11.55
2023-02-14T22:07:39.480Z,10.32
2023-02-14T22:10:55.855Z,10.30
2023-02-14T22:13:24.688Z,10.05
2023-02-14T22:16:45.212Z,10.02
2023-02-14T22:19:45.682Z,9.45
2023-02-14T22:34:06.437Z,9.13
2023-02-14T22:36:45.159Z,9.43
2023-02-14T22:42:33.483Z,9.45
2023-02-14T22:45:14.422Z,7.30
2023-02-14T22:48:50.496Z,9.48
2023-02-14T23:00:32.931Z,8.90
2023-02-14T23:03:09.312Z,9.27
2023-02-14T23:05:40.036Z,9.52
2023-02-14T23:08:32.486Z,7.70
2023-02-14T23:11:25.655Z,8.35
2023-02-14T23:14:13.966Z,8.20
2023-02-14T23:17:07.165Z,7.82
2023-02-14T23:20:23.129Z,8.20
2023-02-14T23:22:50.412Z,7.57
2023-02-14T23:25:26.906Z,10.00
2023-02-14T23:27:53.679Z,8.30
2023-02-14T23:30:20.500Z,6.78
2023-02-14T23:32:47.617Z,6.20
2023-02-14T23:35:17.515Z,7.72
2023-02-14T23:37:56.003Z,9.18
2023-02-14T23:40:25.743Z,8.80
2023-02-14T23:42:54.566Z,8.55
2023-02-14T23:45:38.864Z,8.32
2023-02-14T23:48:24.008Z,9.05
2023-02-14T23:50:50.604Z,6.38
2023-02-14T23:53:17.657Z,7.75
2023-02-14T23:55:47.409Z,7.95
2023-02-14T23:58:14.628Z,9.15
